Etusivu
METAR-TAF:

METAR-TAF

Lentoasemat :

Karachi, Pakistan

Leveyspiiri: 24-54N, Pituuspiiri: 067-08E, korkeus merenpinnasta: 21 m

Tämänhetkinen sää

Tämä raportti tehtiin 49 minuuttia sitten, kello 19.25 UTC
Tuuli 7 kn lounaasta
Lämpötila 29°C
Kosteus 79%
Ilmanpaine 1002 hPa
Näkyvyys: 6000 m

METAR: OPKC 251925Z 22007KT 6000 NSC 29/25 Q1002 NOSIG

Aika: 01:14 (20:14 UTC)

Sääennuste

Tämä raportti tehtiin 4 tuntia ja 14 minuuttia sitten, kello 16.00 UTC
Ennuste voimassa 25. päivästä klo 18 UTC - 26. päivään klo 24 UTC
Tuuli 8 kn lännestä puuskistuen 18 kn:hen
Näkyvyys: 5000 m
Muutamia pilviä 2000 ft:n korkeudessa
usvaa
From UTC
Tuuli 12 kn lännestä/lounaasta puuskistuen 22 kn:hen
Näkyvyys: 6000 m
From UTC
Tuuli 8 kn lännestä puuskistuen 18 kn:hen
Näkyvyys: 5000 m
Muutamia pilviä 2000 ft:n korkeudessa
usvaa

TAF: OPKC 251600Z 2518/2624 26008G18KT 5000 HZ FEW020 FM 260500Z 25012G22KT 6000 NSC FM 261500Z 26008G18KT 5000 HZ FEW020

Säähavainnot ja -ennusteet yli 4000 lentoasemalta (METAR- ja TAF-raportit).

Käytössä olevat sääasemat on merkitty karttaan keltaisilla ja punaisilla pisteillä.

Aseta hiiri pisteen päälle nähdäksesi sääaseman nimen.

Klikkaa sitten nähdäksesi säähavainnot ja -ennusteet.

Kartan vaihtaminen: klikkaa mustalla rastilla varustettuja vihreitä pisteitä, niin voit zoomata sisään; viivalla varustettua vihreää pistettä, niin voit zoomata ulos tai vihreitä nuolia, niin pääset viereisille kartoille.


METAR-TAF: